»·PEaware :: N800DW KLAS-KLAX

N800DW :: KLAS-KLAX

FLIGHT INFORMATION

Flight Status: Arrived
Operator: Privately registered:
United States
More flights under this callsign
Pilot: Scott L. (17677)
Aircraft: Unknown
(SF50)
More flights by this aircraft type
Origin: KLAS McCarran Intl
United States
Destination: KLAX Los Angeles Intl
United States
More flights between these airports :: More routes between these airports
Route: BOACH8 RIKII SHTNR ANJLL4
File this flight plan on PilotEdge
Remarks:
Altitude:
(Current/Filed)
24,000ft
Speed:
(Current/Filed)
300kts
Departed: 28-Sep-18 12:08 PM
Arrived: 28-Sep-18 01:03 PM
Distance/Time
Traveled:
205nm/0:55
Distance/Time
To Go:
Arrived

Flight Plot

Page will automatically refresh every two minutes.

Flight plan parsing failed; only flown route is shown


Map Options




Map Legend


Flown Route
Filed Route
Departure Airport
Arrival Airport
Navaid (VOR, NDB)
Fix

Horizontal Profiles

Position Reports

Time Latitude Longitude Heading Altitude Ground
Speed
28-Sep-18 11:57 36.081316 -115.170297 53 2115ft 0kts
28-Sep-18 11:58 36.081316 -115.170297 53 2115ft 0kts
28-Sep-18 11:59 36.081316 -115.170297 53 2115ft 0kts
28-Sep-18 12:00 36.081316 -115.170297 53 2115ft 0kts
28-Sep-18 12:01 36.081316 -115.170297 53 2115ft 0kts
28-Sep-18 12:02 36.081316 -115.170297 53 2115ft 0kts
28-Sep-18 12:03 36.081316 -115.170297 53 2115ft 0kts
28-Sep-18 12:04 36.081316 -115.170297 53 2115ft 0kts
28-Sep-18 12:05 36.081524 -115.169955 48 2115ft 8kts
28-Sep-18 12:06 36.085536 -115.166937 23 2115ft 24kts
28-Sep-18 12:07 36.093026 -115.162651 28 2115ft 34kts
28-Sep-18 12:08 36.099854 -115.157515 93 2115ft 3kts
28-Sep-18 12:09 36.099854 -115.157511 94 2115ft 0kts
28-Sep-18 12:10 36.096180 -115.158384 204 2115ft 80kts
28-Sep-18 12:11 36.066280 -115.175511 202 4019ft 124kts
28-Sep-18 12:12 36.036002 -115.192841 201 6123ft 133kts
28-Sep-18 12:13 36.003732 -115.229107 242 7820ft 193kts
28-Sep-18 12:14 35.973903 -115.293224 221 9372ft 234kts
28-Sep-18 12:15 35.909590 -115.308878 185 10939ft 247kts
28-Sep-18 12:16 35.841926 -115.313317 175 12412ft 254kts
28-Sep-18 12:17 35.771510 -115.305294 176 13911ft 255kts
28-Sep-18 12:18 35.701941 -115.297369 176 15490ft 250kts
28-Sep-18 12:19 35.634386 -115.296400 184 17049ft 244kts
28-Sep-18 12:20 35.567726 -115.299027 184 18617ft 239kts
28-Sep-18 12:21 35.503243 -115.304128 208 20140ft 229kts
28-Sep-18 12:22 35.449928 -115.342239 212 21748ft 219kts
28-Sep-18 12:23 35.399033 -115.379182 213 23300ft 209kts
28-Sep-18 12:24 35.348327 -115.416087 213 24053ft 234kts
28-Sep-18 12:25 35.289098 -115.459055 212 24044ft 271kts
28-Sep-18 12:26 35.221815 -115.507727 212 24038ft 290kts
28-Sep-18 12:27 35.151727 -115.558344 212 23999ft 298kts
28-Sep-18 12:28 35.089261 -115.623188 227 24006ft 299kts
28-Sep-18 12:29 35.041188 -115.684665 227 24032ft 300kts
28-Sep-18 12:30 34.983580 -115.758189 227 24029ft 302kts
28-Sep-18 12:31 34.925627 -115.831979 227 24029ft 303kts
28-Sep-18 12:32 34.873606 -115.898076 227 24080ft 302kts
28-Sep-18 12:33 34.815419 -115.971856 227 24083ft 304kts
28-Sep-18 12:34 34.757338 -116.045541 227 24082ft 304kts
28-Sep-18 12:35 34.699224 -116.119574 227 24082ft 304kts
28-Sep-18 12:36 34.640997 -116.193595 227 24078ft 304kts
28-Sep-18 12:37 34.582556 -116.267725 227 24067ft 305kts
28-Sep-18 12:38 34.524173 -116.341623 227 24072ft 304kts
28-Sep-18 12:39 34.465849 -116.415287 227 24070ft 304kts
28-Sep-18 12:40 34.410480 -116.492159 245 24053ft 303kts
28-Sep-18 12:41 34.373023 -116.583571 243 24018ft 304kts
28-Sep-18 12:42 34.339431 -116.665007 243 23982ft 305kts
28-Sep-18 12:43 34.301415 -116.759352 243 22705ft 335kts
28-Sep-18 12:44 34.259675 -116.862945 243 20955ft 351kts
28-Sep-18 12:45 34.217013 -116.968553 242 19185ft 355kts
28-Sep-18 12:46 34.184595 -117.081237 250 17387ft 358kts
28-Sep-18 12:47 34.159582 -117.173303 249 16861ft 340kts
28-Sep-18 12:48 34.124652 -117.300171 249 14758ft 344kts
28-Sep-18 12:49 34.100455 -117.389748 251 13977ft 325kts
28-Sep-18 12:50 34.074750 -117.491857 247 12505ft 248kts
28-Sep-18 12:51 34.053658 -117.552632 244 10925ft 233kts
28-Sep-18 12:52 34.029510 -117.620020 244 9985ft 203kts
28-Sep-18 12:53 34.005339 -117.697387 262 10032ft 266kts
28-Sep-18 12:54 33.997433 -117.779048 261 8796ft 316kts
28-Sep-18 12:55 33.989184 -117.864532 261 7344ft 238kts
28-Sep-18 12:56 33.981942 -117.938315 261 6021ft 219kts
28-Sep-18 12:57 33.974898 -118.009726 261 5004ft 207kts
28-Sep-18 12:58 33.968311 -118.076892 262 5024ft 217kts
28-Sep-18 12:59 33.960782 -118.151949 261 3596ft 208kts
28-Sep-18 13:00 33.954384 -118.216776 262 2255ft 192kts
28-Sep-18 13:01 33.949213 -118.267929 262 1879ft 115kts
28-Sep-18 13:02 33.945426 -118.304719 262 1411ft 115kts
28-Sep-18 13:03 33.941427 -118.343563 262 784ft 121kts
28-Sep-18 13:04 33.937414 -118.382652 262 157ft 104kts
28-Sep-18 13:05 33.934574 -118.402020 170 107ft 0kts
28-Sep-18 13:06 33.934574 -118.402020 170 107ft 0kts
28-Sep-18 13:07 33.933205 -118.400016 168 107ft 1kts

Navigation Log

Ident Type
Flight plan parsing failed, navigation log unavailable